createdAt,value
2022-10-05T00:01:56.935Z,9.63
2022-10-05T00:04:24.943Z,9.59
2022-10-05T00:07:04.521Z,9.58
2022-10-05T00:09:32.842Z,9.53
2022-10-05T00:12:02.850Z,9.53
2022-10-05T00:14:32.884Z,9.51
2022-10-05T00:17:01.419Z,9.39
2022-10-05T00:19:33.124Z,9.41
2022-10-05T00:22:11.948Z,9.37
2022-10-05T00:24:40.419Z,9.25
2022-10-05T00:27:36.346Z,9.17
2022-10-05T00:30:17.932Z,9.04
2022-10-05T00:32:46.111Z,9.03
2022-10-05T00:35:14.389Z,8.96
2022-10-05T00:37:43.862Z,8.91
2022-10-05T00:40:45.364Z,8.83
2022-10-05T00:43:19.040Z,8.84
2022-10-05T00:45:50.554Z,8.90
2022-10-05T00:48:31.152Z,8.82
2022-10-05T00:51:17.358Z,8.79
2022-10-05T00:54:07.115Z,8.75
2022-10-05T00:56:35.411Z,8.69
2022-10-05T00:59:11.849Z,8.64
2022-10-05T01:02:03.102Z,8.57
2022-10-05T01:04:59.720Z,8.54
2022-10-05T01:07:51.022Z,8.51
2022-10-05T01:10:32.937Z,8.48
2022-10-05T01:13:04.053Z,8.38
2022-10-05T01:15:43.081Z,8.35
2022-10-05T01:18:22.440Z,8.27
2022-10-05T01:20:56.548Z,8.24
2022-10-05T01:23:53.576Z,8.22
2022-10-05T01:26:49.810Z,8.23
2022-10-05T01:29:24.557Z,8.27
2022-10-05T01:32:29.492Z,8.34
2022-10-05T01:35:03.188Z,8.39
2022-10-05T01:37:44.861Z,8.38
2022-10-05T01:40:48.972Z,8.37
2022-10-05T01:43:36.662Z,8.35
2022-10-05T01:46:23.745Z,8.34
2022-10-05T01:48:54.078Z,8.42
2022-10-05T01:51:43.835Z,8.46
2022-10-05T01:54:27.312Z,8.43
2022-10-05T01:57:21.664Z,8.39
2022-10-05T02:00:11.823Z,8.48
2022-10-05T02:02:49.152Z,8.51
2022-10-05T02:05:26.462Z,8.54
2022-10-05T02:08:00.876Z,8.61
2022-10-05T02:10:38.783Z,8.65
2022-10-05T02:13:15.608Z,8.61
2022-10-05T02:15:50.169Z,8.65
2022-10-05T02:18:25.609Z,8.69
2022-10-05T02:20:53.460Z,8.71
2022-10-05T02:23:22.432Z,8.73
2022-10-05T02:25:51.512Z,8.79
2022-10-05T02:28:41.626Z,8.79
2022-10-05T02:31:11.767Z,8.79
2022-10-05T02:33:39.545Z,8.81
2022-10-05T02:36:16.078Z,8.90
2022-10-05T02:38:51.692Z,8.86
2022-10-05T02:41:32.184Z,8.90
2022-10-05T02:44:26.851Z,9.00
2022-10-05T02:47:13.885Z,9.02
2022-10-05T02:50:06.125Z,9.00
2022-10-05T02:52:36.960Z,8.85
2022-10-05T02:55:33.217Z,8.80
2022-10-05T02:58:17.066Z,8.74
2022-10-05T03:00:58.040Z,8.74
2022-10-05T03:03:47.080Z,8.72
2022-10-05T03:06:26.005Z,8.72
2022-10-05T03:09:08.555Z,8.69
2022-10-05T03:12:04.957Z,8.71
2022-10-05T03:14:54.368Z,8.70
2022-10-05T03:17:24.133Z,8.69
2022-10-05T03:20:20.932Z,8.69
2022-10-05T03:22:50.940Z,8.66
2022-10-05T03:25:55.309Z,8.72
2022-10-05T03:28:25.882Z,8.73
2022-10-05T03:31:04.267Z,8.73
2022-10-05T03:33:53.206Z,8.79
2022-10-05T03:36:42.514Z,8.78
2022-10-05T03:39:43.325Z,8.78
2022-10-05T03:42:32.852Z,8.73
2022-10-05T03:45:07.590Z,8.73
2022-10-05T03:48:00.442Z,8.76
2022-10-05T03:50:46.441Z,8.70
2022-10-05T03:53:26.396Z,8.73
2022-10-05T03:56:07.560Z,8.76
2022-10-05T03:58:40.164Z,8.80
2022-10-05T04:01:15.487Z,8.88
2022-10-05T04:03:48.949Z,8.90
2022-10-05T04:06:19.181Z,8.95
2022-10-05T04:08:53.633Z,9.09
2022-10-05T04:11:47.372Z,9.18
2022-10-05T04:14:26.939Z,9.25
2022-10-05T04:17:10.111Z,9.35
2022-10-05T04:19:46.260Z,9.46
2022-10-05T04:22:14.589Z,9.54
2022-10-05T04:24:49.987Z,9.64
2022-10-05T04:27:39.424Z,9.72
2022-10-05T04:30:18.140Z,9.84
2022-10-05T04:32:55.044Z,9.96
2022-10-05T04:35:44.181Z,10.12
2022-10-05T04:38:50.117Z,10.24
2022-10-05T04:41:46.993Z,10.33
2022-10-05T04:44:29.183Z,10.47
2022-10-05T04:47:15.153Z,10.57
2022-10-05T04:49:49.088Z,10.75
2022-10-05T04:52:20.229Z,10.72
2022-10-05T04:54:56.732Z,10.81
2022-10-05T04:57:29.049Z,10.96
2022-10-05T05:00:05.727Z,10.97
2022-10-05T05:02:54.855Z,11.10
2022-10-05T05:06:19.289Z,11.18
2022-10-05T05:09:12.100Z,11.31
2022-10-05T05:12:22.050Z,11.29
2022-10-05T05:15:08.363Z,11.14
2022-10-05T05:17:59.704Z,11.20
2022-10-05T05:20:33.294Z,11.16
2022-10-05T05:23:38.117Z,11.16
2022-10-05T05:26:06.086Z,11.22
2022-10-05T05:28:42.833Z,11.24
2022-10-05T05:31:16.017Z,11.29
2022-10-05T05:33:49.697Z,11.42
2022-10-05T05:36:27.647Z,11.49
2022-10-05T05:39:27.151Z,11.64
2022-10-05T05:42:12.201Z,11.71
2022-10-05T05:44:51.458Z,11.82
2022-10-05T05:47:35.487Z,11.81
2022-10-05T05:50:25.696Z,11.89
2022-10-05T05:53:07.393Z,12.01
2022-10-05T05:55:44.238Z,12.09
2022-10-05T05:58:33.095Z,12.25
2022-10-05T06:01:30.698Z,12.32
2022-10-05T06:04:01.821Z,12.47
2022-10-05T06:06:35.844Z,12.44
2022-10-05T06:09:29.987Z,12.46
2022-10-05T06:12:09.832Z,12.63
2022-10-05T06:14:48.369Z,12.74
2022-10-05T06:17:22.593Z,12.84
2022-10-05T06:19:50.965Z,12.88
2022-10-05T06:22:35.018Z,12.94
2022-10-05T06:25:12.798Z,13.09
2022-10-05T06:28:11.369Z,13.17
2022-10-05T06:31:02.411Z,13.35
2022-10-05T06:33:42.353Z,13.55
2022-10-05T06:36:28.418Z,13.69
2022-10-05T06:38:56.216Z,13.82
2022-10-05T06:41:33.072Z,13.75
2022-10-05T06:44:17.312Z,13.81
2022-10-05T06:46:50.829Z,14.10
2022-10-05T06:49:52.178Z,14.07
2022-10-05T06:53:10.940Z,13.89
2022-10-05T06:55:45.151Z,13.73
2022-10-05T06:58:23.753Z,13.77
2022-10-05T07:01:18.603Z,13.62
2022-10-05T07:03:54.604Z,13.47
2022-10-05T07:06:45.929Z,13.61
2022-10-05T07:09:45.915Z,13.48
2022-10-05T07:12:37.151Z,13.53
2022-10-05T07:15:42.338Z,13.67
2022-10-05T07:18:26.640Z,13.68
2022-10-05T07:21:07.533Z,13.52
2022-10-05T07:24:01.505Z,13.47
2022-10-05T07:26:42.949Z,13.76
2022-10-05T07:29:24.715Z,13.93
2022-10-05T07:32:11.499Z,14.16
2022-10-05T07:35:01.571Z,14.08
2022-10-05T07:37:58.045Z,14.10
2022-10-05T07:40:38.231Z,14.34
2022-10-05T07:43:45.255Z,14.39
2022-10-05T07:46:57.010Z,14.50
2022-10-05T07:49:46.041Z,14.65
2022-10-05T07:52:34.552Z,14.84
2022-10-05T07:55:10.619Z,15.07
2022-10-05T07:58:29.863Z,15.04
2022-10-05T08:01:25.203Z,15.12
2022-10-05T08:04:45.316Z,15.14
2022-10-05T08:07:14.025Z,15.25
2022-10-05T08:10:03.452Z,15.36
2022-10-05T08:12:48.690Z,15.43
2022-10-05T08:15:18.683Z,15.45
2022-10-05T08:17:54.738Z,15.59
2022-10-05T08:20:47.490Z,15.66
2022-10-05T08:23:24.173Z,15.60
2022-10-05T08:26:24.182Z,15.76
2022-10-05T08:28:54.549Z,16.07
2022-10-05T08:31:32.330Z,16.20
2022-10-05T08:34:22.254Z,16.10
2022-10-05T08:37:06.015Z,15.74
2022-10-05T08:39:41.097Z,15.69
2022-10-05T08:42:09.986Z,15.56
2022-10-05T08:44:52.618Z,15.39
2022-10-05T08:47:21.961Z,15.28
2022-10-05T08:50:23.338Z,15.37
2022-10-05T08:53:25.601Z,15.34
2022-10-05T08:56:19.109Z,15.28
2022-10-05T08:58:54.003Z,15.24
2022-10-05T09:01:46.953Z,15.19
2022-10-05T09:04:30.261Z,15.40
2022-10-05T09:07:06.981Z,15.73
2022-10-05T09:09:47.356Z,15.98
2022-10-05T09:12:27.142Z,16.26
2022-10-05T09:15:26.802Z,16.53
2022-10-05T09:18:15.142Z,16.77
2022-10-05T09:20:53.392Z,16.75
2022-10-05T09:23:36.067Z,16.62
2022-10-05T09:26:41.819Z,16.45
2022-10-05T09:29:37.237Z,16.30
2022-10-05T09:32:40.109Z,16.15
2022-10-05T09:35:19.768Z,15.97
2022-10-05T09:38:25.061Z,16.08
2022-10-05T09:41:11.879Z,16.25
2022-10-05T09:43:59.363Z,16.61
2022-10-05T09:46:46.240Z,16.59
2022-10-05T09:49:19.913Z,16.28
2022-10-05T09:52:00.508Z,16.37
2022-10-05T09:54:43.818Z,16.36
2022-10-05T09:57:39.550Z,16.66
2022-10-05T10:00:40.999Z,16.38
2022-10-05T10:03:46.250Z,15.98
2022-10-05T10:06:19.764Z,16.11
2022-10-05T10:09:08.356Z,16.65
2022-10-05T10:11:41.811Z,16.98
2022-10-05T10:14:34.197Z,17.15
2022-10-05T10:17:20.044Z,16.56
2022-10-05T10:20:19.967Z,16.30
2022-10-05T10:23:10.175Z,16.17
2022-10-05T10:26:18.536Z,16.25
2022-10-05T10:29:01.215Z,15.95
2022-10-05T10:31:38.093Z,15.92
2022-10-05T10:34:41.019Z,15.84
2022-10-05T10:37:24.261Z,15.91
2022-10-05T10:39:55.726Z,16.15
2022-10-05T10:42:41.513Z,16.64
2022-10-05T10:45:08.997Z,16.59
2022-10-05T10:48:02.212Z,16.68
2022-10-05T10:50:57.723Z,16.93
2022-10-05T10:54:03.774Z,16.94
2022-10-05T10:56:58.696Z,17.04
2022-10-05T10:59:57.389Z,17.21
2022-10-05T11:02:31.932Z,17.12
2022-10-05T11:05:23.041Z,17.09
2022-10-05T11:08:03.036Z,17.12
2022-10-05T11:11:04.925Z,17.05
2022-10-05T11:14:21.208Z,16.96
2022-10-05T11:17:11.006Z,16.74
2022-10-05T11:20:04.839Z,16.57
2022-10-05T11:22:51.909Z,16.44
2022-10-05T11:25:44.590Z,16.64
2022-10-05T11:28:27.686Z,16.81
2022-10-05T11:31:20.647Z,16.82
2022-10-05T11:34:17.351Z,17.10
2022-10-05T11:36:44.918Z,17.28
2022-10-05T11:39:23.503Z,17.66
2022-10-05T11:42:06.787Z,17.48
2022-10-05T11:47:57.222Z,17.43
2022-10-05T11:50:42.680Z,17.54
2022-10-05T11:53:27.296Z,17.52
2022-10-05T11:56:13.706Z,17.25
2022-10-05T11:58:58.085Z,16.73
2022-10-05T12:01:30.544Z,17.04
2022-10-05T12:04:16.791Z,17.28
2022-10-05T12:06:51.086Z,17.44
2022-10-05T12:10:01.862Z,17.75
2022-10-05T12:12:31.522Z,17.88
2022-10-05T12:15:14.062Z,17.73
2022-10-05T12:17:51.298Z,17.74
2022-10-05T12:20:18.868Z,17.95
2022-10-05T12:22:54.577Z,18.11
2022-10-05T12:25:26.332Z,18.68
2022-10-05T12:27:56.844Z,18.82
2022-10-05T12:30:49.180Z,18.56
2022-10-05T12:33:43.953Z,18.44
2022-10-05T12:36:15.485Z,17.95
2022-10-05T12:39:05.214Z,18.11
2022-10-05T12:41:53.961Z,17.76
2022-10-05T12:44:42.263Z,17.23
2022-10-05T12:47:35.395Z,17.73
2022-10-05T12:50:28.492Z,18.02
2022-10-05T12:53:02.314Z,17.70
2022-10-05T12:55:54.815Z,17.54
2022-10-05T12:58:28.980Z,17.26
2022-10-05T13:01:25.358Z,17.13
2022-10-05T13:04:01.157Z,16.78
2022-10-05T13:06:53.370Z,16.65
2022-10-05T13:10:03.715Z,16.51
2022-10-05T13:12:41.334Z,16.36
2022-10-05T13:15:47.876Z,16.35
2022-10-05T13:18:21.777Z,16.34
2022-10-05T13:21:26.777Z,16.20
2022-10-05T13:24:15.169Z,16.16
2022-10-05T13:26:45.901Z,16.18
2022-10-05T13:29:31.781Z,16.20
2022-10-05T13:32:18.252Z,16.36
2022-10-05T13:34:52.701Z,16.36
2022-10-05T13:37:32.688Z,16.27
2022-10-05T13:40:37.188Z,16.08
2022-10-05T13:43:44.071Z,15.80
2022-10-05T13:46:33.532Z,15.63
2022-10-05T13:49:22.005Z,15.66
2022-10-05T13:52:04.422Z,15.76
2022-10-05T13:55:09.433Z,15.82
2022-10-05T13:58:09.428Z,15.55
2022-10-05T14:01:34.050Z,15.32
2022-10-05T14:04:50.960Z,15.10
2022-10-05T14:07:38.323Z,15.02
2022-10-05T14:10:13.403Z,15.02
2022-10-05T14:12:43.646Z,14.92
2022-10-05T14:15:30.636Z,14.79
2022-10-05T14:17:58.403Z,14.72
2022-10-05T14:20:31.682Z,14.69
2022-10-05T14:23:03.842Z,14.61
2022-10-05T14:25:32.176Z,14.58
2022-10-05T14:28:03.979Z,14.57
2022-10-05T14:30:32.361Z,14.74
2022-10-05T14:33:05.721Z,14.90
2022-10-05T14:35:50.625Z,14.99
2022-10-05T14:38:29.868Z,14.90
2022-10-05T14:41:17.727Z,14.62
2022-10-05T14:44:06.318Z,14.55
2022-10-05T14:46:35.596Z,14.30
2022-10-05T14:49:22.942Z,14.17
2022-10-05T14:51:51.346Z,14.16
2022-10-05T14:54:34.262Z,14.10
2022-10-05T14:57:23.324Z,14.06
2022-10-05T15:00:12.948Z,13.92
2022-10-05T15:02:51.821Z,13.83
2022-10-05T15:05:31.382Z,13.73
2022-10-05T15:08:08.950Z,13.70
2022-10-05T15:10:37.653Z,13.59
2022-10-05T15:13:11.627Z,13.55
2022-10-05T15:15:54.880Z,13.47
2022-10-05T15:18:32.139Z,13.36
2022-10-05T15:21:06.439Z,13.38
2022-10-05T15:23:47.562Z,13.26
2022-10-05T15:26:37.264Z,13.21
2022-10-05T15:29:26.192Z,13.12
2022-10-05T15:32:15.587Z,13.04
2022-10-05T15:35:08.515Z,12.95
2022-10-05T15:37:42.253Z,12.87
2022-10-05T15:40:43.130Z,12.86
2022-10-05T15:43:13.961Z,12.77
2022-10-05T15:46:14.163Z,12.65
2022-10-05T15:48:54.638Z,12.54
2022-10-05T15:51:36.549Z,12.37
2022-10-05T15:54:40.990Z,12.30
2022-10-05T15:57:18.240Z,12.20
2022-10-05T15:59:55.812Z,12.12
2022-10-05T16:02:33.382Z,12.13
2022-10-05T16:05:06.237Z,12.03
2022-10-05T16:07:59.676Z,12.00
2022-10-05T16:10:34.124Z,11.96
2022-10-05T16:13:07.513Z,11.87
2022-10-05T16:15:48.745Z,11.73
2022-10-05T16:18:40.937Z,11.69
2022-10-05T16:21:32.417Z,11.56
2022-10-05T16:24:06.444Z,11.36
2022-10-05T16:26:53.796Z,11.12
2022-10-05T16:29:40.465Z,11.04
2022-10-05T16:32:37.229Z,10.97
2022-10-05T16:35:17.097Z,11.06
2022-10-05T16:38:22.488Z,11.09
2022-10-05T16:41:02.892Z,11.13
2022-10-05T16:43:40.432Z,11.25
2022-10-05T16:46:27.881Z,11.32
2022-10-05T16:49:04.467Z,11.34
2022-10-05T16:51:39.507Z,11.46
2022-10-05T16:54:15.372Z,11.55
2022-10-05T16:56:48.446Z,11.54
2022-10-05T16:59:53.600Z,11.56
2022-10-05T17:02:55.492Z,11.56
2022-10-05T17:06:04.784Z,11.57
2022-10-05T17:08:36.805Z,11.56
2022-10-05T17:11:25.775Z,11.55
2022-10-05T17:14:16.091Z,11.49
2022-10-05T17:16:55.828Z,11.48
2022-10-05T17:19:46.756Z,11.41
2022-10-05T17:22:40.040Z,11.32
2022-10-05T17:25:25.264Z,11.28
2022-10-05T17:27:54.829Z,11.29
2022-10-05T17:30:48.634Z,11.28
2022-10-05T17:33:27.640Z,11.33
2022-10-05T17:36:04.727Z,11.33
2022-10-05T17:38:34.280Z,11.27
2022-10-05T17:41:20.477Z,11.23
2022-10-05T17:44:07.184Z,11.32
2022-10-05T17:46:48.667Z,11.24
2022-10-05T17:49:22.176Z,11.32
2022-10-05T17:52:11.458Z,11.35
2022-10-05T17:55:03.851Z,11.31
2022-10-05T17:57:32.093Z,11.31
2022-10-05T18:00:02.776Z,11.36
2022-10-05T18:02:36.679Z,11.39
2022-10-05T18:05:12.806Z,11.45
2022-10-05T18:07:42.157Z,11.42
2022-10-05T18:10:09.631Z,11.40
2022-10-05T18:12:38.809Z,11.36
2022-10-05T18:15:06.526Z,11.33
2022-10-05T18:17:47.831Z,11.38
2022-10-05T18:20:28.842Z,11.47
2022-10-05T18:23:09.715Z,11.56
2022-10-05T18:26:20.492Z,11.56
2022-10-05T18:29:13.914Z,11.56
2022-10-05T18:31:46.746Z,11.61
2022-10-05T18:34:17.211Z,11.59
2022-10-05T18:37:18.276Z,11.71
2022-10-05T18:39:51.999Z,11.72
2022-10-05T18:42:25.578Z,11.75
2022-10-05T18:45:17.077Z,11.76
2022-10-05T18:48:03.233Z,11.69
2022-10-05T18:51:01.004Z,11.69
2022-10-05T18:53:51.145Z,11.76
2022-10-05T18:56:35.713Z,11.81
2022-10-05T18:59:24.273Z,11.81
2022-10-05T19:02:07.281Z,11.84
2022-10-05T19:04:57.181Z,11.90
2022-10-05T19:07:28.160Z,11.91
2022-10-05T19:10:05.050Z,11.93
2022-10-05T19:12:43.395Z,11.93
2022-10-05T19:15:29.371Z,11.86
2022-10-05T19:18:34.314Z,11.80
2022-10-05T19:21:10.976Z,11.79
2022-10-05T19:23:57.700Z,11.71
2022-10-05T19:26:40.646Z,11.63
2022-10-05T19:29:30.484Z,11.67
2022-10-05T19:32:18.738Z,11.66
2022-10-05T19:35:07.536Z,11.70
2022-10-05T19:37:37.972Z,11.70
2022-10-05T19:40:36.721Z,11.71
2022-10-05T19:43:38.365Z,11.68
2022-10-05T19:46:27.967Z,11.59
2022-10-05T19:48:55.677Z,11.54
2022-10-05T19:51:34.657Z,11.41
2022-10-05T19:54:12.996Z,11.34
2022-10-05T19:56:51.183Z,11.31
2022-10-05T19:59:25.261Z,11.24
2022-10-05T20:01:55.536Z,11.15
2022-10-05T20:04:34.249Z,11.11
2022-10-05T20:07:02.542Z,11.05
2022-10-05T20:09:30.322Z,10.98
2022-10-05T20:11:58.169Z,10.93
2022-10-05T20:14:31.052Z,10.79
2022-10-05T20:17:47.584Z,10.76
2022-10-05T20:20:45.765Z,10.64
2022-10-05T20:23:24.152Z,10.62
2022-10-05T20:26:11.301Z,10.57
2022-10-05T20:28:39.217Z,10.52
2022-10-05T20:31:08.202Z,10.49
2022-10-05T20:33:36.016Z,10.42
2022-10-05T20:36:04.271Z,10.38
2022-10-05T20:38:35.174Z,10.34
2022-10-05T20:41:05.245Z,10.26
2022-10-05T20:43:32.897Z,10.16
2022-10-05T20:46:00.668Z,10.12
2022-10-05T20:48:28.564Z,10.04
2022-10-05T20:50:56.508Z,9.98
2022-10-05T20:53:24.168Z,9.98
2022-10-05T20:55:52.099Z,9.99
2022-10-05T20:58:19.988Z,9.94
2022-10-05T21:01:06.342Z,9.95
2022-10-05T21:03:35.520Z,9.96
2022-10-05T21:06:05.514Z,9.95
2022-10-05T21:08:37.028Z,10.05
2022-10-05T21:11:11.183Z,10.10
2022-10-05T21:13:42.688Z,10.15
2022-10-05T21:16:14.324Z,10.14
2022-10-05T21:18:44.589Z,10.17
2022-10-05T21:21:12.840Z,10.27
2022-10-05T21:23:40.727Z,10.36
2022-10-05T21:26:08.384Z,10.39
2022-10-05T21:28:36.106Z,10.43
2022-10-05T21:31:07.017Z,10.45
2022-10-05T21:33:37.495Z,10.44
2022-10-05T21:36:05.362Z,10.48
2022-10-05T21:38:33.196Z,10.57
2022-10-05T21:41:01.012Z,10.70
2022-10-05T21:43:28.920Z,10.76
2022-10-05T21:45:57.118Z,10.87
2022-10-05T21:48:25.255Z,10.93
2022-10-05T21:50:53.265Z,10.92
2022-10-05T21:53:22.277Z,10.94
2022-10-05T21:55:50.328Z,10.95
2022-10-05T21:58:20.481Z,10.93
2022-10-05T22:00:48.284Z,10.92
2022-10-05T22:03:15.885Z,10.89
2022-10-05T22:05:43.501Z,10.80
2022-10-05T22:08:29.204Z,10.80
2022-10-05T22:10:57.443Z,10.72
2022-10-05T22:13:26.257Z,10.72
2022-10-05T22:15:55.631Z,10.84
2022-10-05T22:18:24.693Z,11.01
2022-10-05T22:20:53.384Z,11.07
2022-10-05T22:23:21.043Z,11.09
2022-10-05T22:25:48.806Z,11.06
2022-10-05T22:28:16.610Z,11.16
2022-10-05T22:30:44.813Z,11.21
2022-10-05T22:33:13.416Z,11.22
2022-10-05T22:35:41.484Z,11.21
2022-10-05T22:38:09.053Z,11.20
2022-10-05T22:40:36.911Z,11.18
2022-10-05T22:43:05.384Z,11.18
2022-10-05T22:45:33.298Z,11.13
2022-10-05T22:48:01.102Z,11.13
2022-10-05T22:50:29.094Z,11.08
2022-10-05T22:52:57.564Z,11.09
2022-10-05T22:55:25.381Z,11.11
2022-10-05T22:57:53.122Z,11.13
2022-10-05T23:00:27.541Z,11.09
2022-10-05T23:02:58.837Z,11.07
2022-10-05T23:05:27.292Z,11.01
2022-10-05T23:07:56.469Z,10.99
2022-10-05T23:10:24.589Z,10.95
2022-10-05T23:13:00.484Z,10.90
2022-10-05T23:15:28.838Z,10.86
2022-10-05T23:18:00.597Z,10.79
2022-10-05T23:20:28.256Z,10.76
2022-10-05T23:22:55.912Z,10.67
2022-10-05T23:25:23.657Z,10.64
2022-10-05T23:27:51.735Z,10.58
2022-10-05T23:30:19.517Z,10.48
2022-10-05T23:32:48.305Z,10.48
2022-10-05T23:35:15.972Z,10.42
2022-10-05T23:37:44.332Z,10.40
2022-10-05T23:40:13.743Z,10.34
2022-10-05T23:42:41.514Z,10.32
2022-10-05T23:45:10.643Z,10.29
2022-10-05T23:47:39.902Z,10.26
2022-10-05T23:50:07.996Z,10.27
2022-10-05T23:52:36.321Z,10.33
2022-10-05T23:55:05.007Z,10.41
2022-10-05T23:57:32.993Z,10.42
